createdAt,value
2022-10-01T00:00:36.963Z,3.70
2022-10-01T00:03:03.847Z,3.60
2022-10-01T00:05:30.659Z,3.60
2022-10-01T00:07:57.430Z,3.60
2022-10-01T00:10:24.122Z,3.50
2022-10-01T00:12:50.894Z,3.50
2022-10-01T00:15:21.712Z,3.50
2022-10-01T00:17:48.522Z,3.60
2022-10-01T00:20:15.075Z,3.60
2022-10-01T00:22:41.946Z,3.50
2022-10-01T00:25:08.802Z,3.50
2022-10-01T00:27:35.937Z,3.50
2022-10-01T00:30:04.917Z,3.50
2022-10-01T00:32:32.341Z,3.50
2022-10-01T00:35:00.595Z,3.50
2022-10-01T00:37:27.413Z,3.50
2022-10-01T00:39:54.149Z,3.50
2022-10-01T00:42:23.853Z,3.60
2022-10-01T00:44:51.186Z,3.70
2022-10-01T00:47:22.347Z,3.80
2022-10-01T00:49:57.453Z,3.80
2022-10-01T00:52:30.394Z,3.90
2022-10-01T00:55:03.430Z,3.90
2022-10-01T00:57:31.165Z,4.00
2022-10-01T01:00:01.398Z,4.10
2022-10-01T01:02:28.422Z,4.10
2022-10-01T01:04:55.388Z,4.10
2022-10-01T01:07:22.855Z,4.10
2022-10-01T01:09:53.273Z,4.10
2022-10-01T01:12:19.961Z,4.00
2022-10-01T01:14:58.701Z,4.00
2022-10-01T01:17:39.629Z,3.90
2022-10-01T01:20:29.850Z,3.90
2022-10-01T01:23:16.515Z,3.90
2022-10-01T01:26:05.675Z,3.80
2022-10-01T01:28:39.169Z,3.80
2022-10-01T01:31:10.306Z,3.70
2022-10-01T01:33:40.074Z,3.60
2022-10-01T01:36:16.242Z,3.60
2022-10-01T01:38:47.562Z,3.60
2022-10-01T01:41:16.141Z,3.50
2022-10-01T01:43:47.132Z,3.50
2022-10-01T01:46:17.732Z,3.50
2022-10-01T01:48:49.181Z,3.40
2022-10-01T01:51:19.861Z,3.40
2022-10-01T01:53:46.660Z,3.40
2022-10-01T01:56:14.180Z,3.40
2022-10-01T01:58:41.092Z,3.30
2022-10-01T02:01:07.981Z,3.30
2022-10-01T02:03:35.346Z,3.30
2022-10-01T02:06:02.093Z,3.30
2022-10-01T02:08:35.201Z,3.30
2022-10-01T02:11:19.628Z,4.30
2022-10-01T02:13:50.445Z,3.20
2022-10-01T02:16:46.701Z,3.20
2022-10-01T02:19:47.943Z,3.20
2022-10-01T02:22:22.736Z,3.20
2022-10-01T02:24:57.121Z,3.10
2022-10-01T02:27:40.044Z,3.10
2022-10-01T02:30:09.629Z,3.10
2022-10-01T02:32:39.336Z,3.10
2022-10-01T02:35:10.028Z,3.10
2022-10-01T02:37:38.424Z,3.10
2022-10-01T02:40:11.720Z,3.10
2022-10-01T02:42:40.161Z,3.10
2022-10-01T02:45:09.128Z,3.20
2022-10-01T02:47:43.631Z,3.10
2022-10-01T02:50:12.770Z,3.10
2022-10-01T02:52:54.337Z,3.00
2022-10-01T02:55:28.636Z,3.00
2022-10-01T02:57:56.948Z,3.00
2022-10-01T03:00:26.890Z,3.00
2022-10-01T03:02:54.214Z,3.00
2022-10-01T03:05:21.692Z,0.50
2022-10-01T03:07:48.649Z,3.10
2022-10-01T03:10:16.133Z,3.10
2022-10-01T03:12:45.259Z,3.10
2022-10-01T03:15:14.526Z,3.10
2022-10-01T03:17:41.288Z,3.10
2022-10-01T03:20:09.116Z,3.20
2022-10-01T03:22:36.200Z,3.10
2022-10-01T03:25:03.279Z,3.10
2022-10-01T03:27:29.977Z,3.20
2022-10-01T03:29:56.796Z,3.20
2022-10-01T03:32:23.412Z,3.20
2022-10-01T03:34:50.047Z,3.20
2022-10-01T03:37:16.707Z,3.30
2022-10-01T03:39:43.369Z,3.30
2022-10-01T03:42:10.061Z,3.40
2022-10-01T03:44:37.152Z,3.40
2022-10-01T03:47:03.988Z,3.50
2022-10-01T03:49:30.736Z,3.50
2022-10-01T03:51:57.404Z,3.50
2022-10-01T03:54:25.194Z,3.60
2022-10-01T03:56:52.272Z,3.60
2022-10-01T03:59:19.955Z,3.60
2022-10-01T04:01:46.652Z,3.70
2022-10-01T04:04:13.544Z,3.70
2022-10-01T04:06:40.372Z,3.80
2022-10-01T04:09:09.559Z,3.80
2022-10-01T04:11:37.234Z,3.80
2022-10-01T04:14:03.988Z,3.80
2022-10-01T04:16:30.701Z,3.80
2022-10-01T04:18:57.392Z,3.80
2022-10-01T04:21:24.004Z,3.80
2022-10-01T04:23:50.657Z,3.90
2022-10-01T04:26:19.089Z,3.90
2022-10-01T04:28:46.743Z,3.90
2022-10-01T04:31:34.411Z,3.90
2022-10-01T04:34:01.792Z,3.90
2022-10-01T04:36:28.552Z,4.00
2022-10-01T04:39:00.832Z,4.00
2022-10-01T04:41:30.633Z,4.00
2022-10-01T04:43:59.267Z,4.00
2022-10-01T04:46:26.182Z,4.00
2022-10-01T04:48:52.937Z,4.00
2022-10-01T04:51:19.588Z,4.00
2022-10-01T04:53:46.223Z,4.00
2022-10-01T04:56:12.836Z,3.90
2022-10-01T04:58:40.207Z,3.90
2022-10-01T05:01:07.280Z,3.90
2022-10-01T05:03:34.463Z,3.90
2022-10-01T05:06:01.157Z,3.90
2022-10-01T05:08:27.847Z,4.00
2022-10-01T05:10:54.599Z,4.00
2022-10-01T05:13:21.304Z,4.00
2022-10-01T05:15:52.085Z,4.00
2022-10-01T05:18:19.221Z,4.00
2022-10-01T05:20:46.220Z,4.00
2022-10-01T05:23:12.921Z,4.00
2022-10-01T05:25:39.857Z,4.00
2022-10-01T05:28:06.633Z,4.00
2022-10-01T05:30:34.244Z,4.00
2022-10-01T05:33:03.810Z,4.00
2022-10-01T05:35:30.771Z,4.00
2022-10-01T05:37:59.639Z,4.00
2022-10-01T05:40:28.542Z,4.10
2022-10-01T05:42:57.019Z,4.20
2022-10-01T05:45:24.374Z,4.20
2022-10-01T05:48:00.289Z,4.20
2022-10-01T05:50:31.241Z,4.30
2022-10-01T05:52:59.248Z,4.40
2022-10-01T05:55:26.667Z,4.50
2022-10-01T05:57:55.214Z,4.50
2022-10-01T06:00:22.889Z,4.80
2022-10-01T06:02:52.344Z,4.70
2022-10-01T06:05:20.179Z,4.90
2022-10-01T06:07:47.727Z,4.90
2022-10-01T06:10:14.471Z,5.00
2022-10-01T06:12:42.063Z,5.00
2022-10-01T06:15:09.443Z,5.10
2022-10-01T06:17:36.140Z,5.20
2022-10-01T06:20:02.818Z,5.30
2022-10-01T06:22:29.454Z,5.30
2022-10-01T06:24:56.840Z,5.40
2022-10-01T06:27:23.505Z,5.40
2022-10-01T06:29:50.151Z,5.50
2022-10-01T06:32:19.677Z,5.60
2022-10-01T06:34:46.439Z,5.70
2022-10-01T06:37:13.173Z,5.80
2022-10-01T06:39:39.882Z,5.90
2022-10-01T06:42:06.558Z,6.00
2022-10-01T06:44:33.206Z,6.10
2022-10-01T06:46:59.877Z,6.20
2022-10-01T06:49:26.918Z,6.30
2022-10-01T06:52:13.474Z,6.40
2022-10-01T06:54:40.125Z,6.50
2022-10-01T06:57:07.026Z,6.60
2022-10-01T06:59:36.290Z,6.70
2022-10-01T07:02:04.946Z,6.60
2022-10-01T07:04:31.667Z,6.70
2022-10-01T07:06:58.350Z,6.80
2022-10-01T07:09:25.769Z,6.80
2022-10-01T07:11:53.154Z,6.90
2022-10-01T07:14:21.530Z,7.00
2022-10-01T07:16:48.278Z,7.10
2022-10-01T07:19:14.906Z,7.20
2022-10-01T07:21:41.510Z,7.30
2022-10-01T07:24:08.242Z,7.40
2022-10-01T07:26:34.950Z,7.40
2022-10-01T07:29:01.804Z,7.50
2022-10-01T07:31:28.769Z,7.50
2022-10-01T07:33:58.454Z,7.60
2022-10-01T07:36:25.002Z,7.60
2022-10-01T07:38:51.874Z,7.70
2022-10-01T07:41:18.517Z,7.80
2022-10-01T07:43:46.762Z,7.80
2022-10-01T07:46:13.482Z,7.90
2022-10-01T07:48:41.166Z,8.10
2022-10-01T07:51:07.954Z,8.20
2022-10-01T07:53:34.557Z,8.30
2022-10-01T07:56:02.120Z,8.40
2022-10-01T07:58:28.826Z,8.50
2022-10-01T08:00:58.454Z,8.50
2022-10-01T08:03:25.483Z,8.60
2022-10-01T08:05:53.606Z,8.90
2022-10-01T08:08:20.255Z,8.70
2022-10-01T08:10:47.048Z,8.70
2022-10-01T08:13:14.840Z,8.80
2022-10-01T08:15:45.144Z,8.80
2022-10-01T08:18:12.539Z,8.90
2022-10-01T08:20:40.045Z,8.90
2022-10-01T08:23:10.312Z,8.90
2022-10-01T08:25:37.596Z,9.00
2022-10-01T08:28:04.727Z,8.90
2022-10-01T08:30:31.771Z,8.90
2022-10-01T08:33:00.371Z,9.00
2022-10-01T08:35:28.510Z,8.90
2022-10-01T08:37:56.558Z,8.80
2022-10-01T08:40:24.008Z,8.70
2022-10-01T08:42:56.109Z,8.80
2022-10-01T08:45:27.445Z,8.80
2022-10-01T08:48:30.932Z,8.80
2022-10-01T08:51:11.727Z,8.80
2022-10-01T08:53:53.138Z,8.80
2022-10-01T08:56:30.669Z,8.90
2022-10-01T08:59:00.163Z,8.80
2022-10-01T09:01:27.339Z,8.90
2022-10-01T09:03:54.397Z,8.90
2022-10-01T09:06:25.337Z,8.90
2022-10-01T09:09:12.964Z,8.90
2022-10-01T09:11:42.986Z,8.90
2022-10-01T09:14:32.804Z,9.00
2022-10-01T09:17:23.416Z,9.10
2022-10-01T09:19:54.434Z,9.10
2022-10-01T09:22:43.081Z,9.10
2022-10-01T09:25:12.685Z,9.20
2022-10-01T09:27:39.873Z,9.20
2022-10-01T09:30:12.205Z,9.20
2022-10-01T09:32:44.578Z,9.30
2022-10-01T09:35:20.886Z,9.30
2022-10-01T09:38:03.320Z,9.30
2022-10-01T09:40:35.643Z,9.40
2022-10-01T09:43:05.100Z,9.40
2022-10-01T09:45:31.896Z,9.40
2022-10-01T09:48:05.477Z,9.40
2022-10-01T09:50:40.962Z,9.40
2022-10-01T09:53:16.473Z,9.40
2022-10-01T09:55:45.564Z,9.40
2022-10-01T09:58:14.701Z,9.40
2022-10-01T10:00:42.450Z,9.40
2022-10-01T10:03:09.380Z,9.40
2022-10-01T10:05:51.812Z,9.50
2022-10-01T10:08:36.874Z,9.50
2022-10-01T10:11:08.321Z,9.50
2022-10-01T10:13:39.389Z,9.50
2022-10-01T10:16:10.532Z,9.60
2022-10-01T10:18:39.596Z,9.60
2022-10-01T10:21:15.052Z,9.70
2022-10-01T10:23:52.224Z,9.80
2022-10-01T10:26:21.931Z,9.90
2022-10-01T10:28:48.778Z,9.90
2022-10-01T10:31:20.117Z,10.00
2022-10-01T10:33:51.111Z,10.10
2022-10-01T10:36:19.727Z,10.20
2022-10-01T10:38:49.883Z,10.00
2022-10-01T10:41:19.709Z,10.40
2022-10-01T10:43:49.044Z,10.40
2022-10-01T10:46:34.475Z,10.40
2022-10-01T10:49:05.106Z,10.40
2022-10-01T10:51:54.275Z,11.20
2022-10-01T10:54:25.635Z,10.40
2022-10-01T10:57:00.671Z,10.40
2022-10-01T10:59:27.501Z,10.40
2022-10-01T11:01:54.509Z,10.30
2022-10-01T11:04:44.159Z,10.30
2022-10-01T11:07:13.404Z,10.30
2022-10-01T11:10:05.874Z,10.30
2022-10-01T11:12:33.672Z,10.20
2022-10-01T11:15:27.325Z,10.30
2022-10-01T11:18:19.095Z,10.20
2022-10-01T11:21:03.207Z,10.30
2022-10-01T11:24:00.235Z,10.20
2022-10-01T11:26:44.736Z,10.20
2022-10-01T11:29:39.739Z,10.40
2022-10-01T11:32:19.317Z,10.40
2022-10-01T11:35:13.677Z,10.50
2022-10-01T11:37:41.451Z,10.50
2022-10-01T11:40:29.096Z,10.60
2022-10-01T11:43:02.886Z,10.70
2022-10-01T11:45:35.235Z,10.80
2022-10-01T11:48:08.127Z,11.00
2022-10-01T11:50:40.707Z,11.00
2022-10-01T11:53:32.399Z,11.00
2022-10-01T11:56:26.462Z,11.20
2022-10-01T11:58:57.258Z,11.30
2022-10-01T12:01:23.927Z,11.50
2022-10-01T12:03:53.844Z,11.60
2022-10-01T12:06:33.631Z,11.90
2022-10-01T12:09:08.129Z,12.00
2022-10-01T12:11:43.866Z,12.10
2022-10-01T12:14:16.747Z,12.00
2022-10-01T12:16:54.829Z,12.20
2022-10-01T12:22:02.303Z,12.40
2022-10-01T12:24:32.914Z,12.50
2022-10-01T12:27:16.868Z,12.60
2022-10-01T12:30:03.130Z,12.70
2022-10-01T12:32:52.999Z,12.90
2022-10-01T12:35:39.487Z,13.00
2022-10-01T12:38:26.084Z,13.00
2022-10-01T12:41:19.506Z,13.00
2022-10-01T12:44:26.461Z,12.90
2022-10-01T12:47:08.522Z,12.70
2022-10-01T12:55:30.719Z,12.80
2022-10-01T12:58:03.134Z,12.80
2022-10-01T13:00:40.892Z,12.90
2022-10-01T13:08:38.898Z,12.80
2022-10-01T13:24:02.391Z,12.90
2022-10-01T13:26:41.529Z,12.90
2022-10-01T13:54:53.412Z,13.10
2022-10-01T13:57:29.821Z,13.00
2022-10-01T13:59:59.755Z,13.00
2022-10-01T14:43:33.033Z,12.90
2022-10-01T15:13:39.864Z,13.50
2022-10-01T15:16:17.266Z,13.50
2022-10-01T15:21:39.783Z,13.40
2022-10-01T15:29:18.122Z,13.60
2022-10-01T15:44:40.954Z,13.40
2022-10-01T16:02:49.925Z,13.30
2022-10-01T16:12:55.518Z,13.30
2022-10-01T16:15:26.105Z,13.20
2022-10-01T16:38:17.534Z,13.10
2022-10-01T16:40:47.935Z,13.10
2022-10-01T17:00:37.129Z,13.20
2022-10-01T17:03:10.137Z,13.10
2022-10-01T17:20:38.218Z,13.10
2022-10-01T17:23:05.705Z,13.10
2022-10-01T17:28:04.332Z,13.10
2022-10-01T17:30:32.748Z,13.10
2022-10-01T17:37:55.749Z,13.10
2022-10-01T17:45:17.306Z,13.20
2022-10-01T17:47:46.159Z,13.20
2022-10-01T17:52:40.921Z,13.20
2022-10-01T18:00:03.421Z,13.10
2022-10-01T18:20:06.297Z,12.70
2022-10-01T18:32:26.168Z,12.60
2022-10-01T18:40:28.989Z,12.60
2022-10-01T18:56:14.473Z,12.60
2022-10-01T18:59:02.124Z,12.60
2022-10-01T19:01:32.354Z,12.60
2022-10-01T19:09:02.980Z,12.50
2022-10-01T19:32:27.308Z,12.50
2022-10-01T19:45:04.650Z,12.50
2022-10-01T19:52:38.235Z,12.50
2022-10-01T20:00:18.055Z,12.70
2022-10-01T20:02:45.827Z,12.70
2022-10-01T20:05:18.458Z,12.70
2022-10-01T20:25:29.838Z,12.80
2022-10-01T20:30:23.951Z,12.80
2022-10-01T20:38:27.778Z,12.90
2022-10-01T20:43:49.224Z,13.00
2022-10-01T20:54:06.906Z,12.90
2022-10-01T21:11:58.166Z,12.80
2022-10-01T21:17:02.680Z,12.70
2022-10-01T21:38:09.329Z,12.30
2022-10-01T21:48:39.067Z,12.10
2022-10-01T21:54:12.824Z,12.00
2022-10-01T22:02:04.755Z,11.80
2022-10-01T22:10:03.514Z,11.50
2022-10-01T22:37:37.430Z,11.00
2022-10-01T22:50:27.330Z,11.30
2022-10-01T22:58:48.895Z,11.20
2022-10-01T23:27:17.910Z,11.20
2022-10-01T23:30:03.633Z,11.30
